Time;durP1;ratioP1;P1;durP2;ratioP2;P2;SDS_P1;SDS_P2;PMS_P1;PMS_P2;Temp;Humidity;BMP_temperature;BMP_pressure;BME280_temperature;BME280_humidity;BME280_pressure;Samples;Min_cycle;Max_cycle;Signal;HPM_P1;HPM_P2
2023/07/10 00:00:18;;;;;;;17.80;4.70;;;23.60;1.00;;;;;;4998431;28;20542;-73
2023/07/10 00:02:44;;;;;;;17.73;5.37;;;23.60;1.00;;;;;;4998777;28;20973;-73
2023/07/10 00:05:19;;;;;;;10.80;4.80;;;23.60;1.00;;;;;;4997887;28;20814;-73
2023/07/10 00:07:51;;;;;;;9.87;4.90;;;23.60;1.00;;;;;;5012071;28;20432;-81
2023/07/10 00:10:50;;;;;;;10.10;4.77;;;23.50;1.00;;;;;;5014772;28;20781;-81
2023/07/10 00:13:21;;;;;;;8.50;5.43;;;23.60;1.00;;;;;;5001157;28;20442;-81
2023/07/10 00:15:52;;;;;;;9.77;4.60;;;23.50;1.00;;;;;;4990599;28;21009;-81
2023/07/10 00:18:22;;;;;;;13.00;4.80;;;23.50;1.00;;;;;;4991365;28;20797;-81
2023/07/10 00:21:20;;;;;;;10.80;5.60;;;23.50;1.00;;;;;;5014279;28;20941;-81
2023/07/10 00:23:46;;;;;;;16.37;5.20;;;23.40;1.00;;;;;;5001541;28;20914;-73
2023/07/10 00:26:27;;;;;;;11.07;5.10;;;23.40;1.00;;;;;;4996106;28;20433;-72
2023/07/10 00:28:56;;;;;;;7.20;5.27;;;23.20;1.00;;;;;;4999677;28;20469;-73
2023/07/10 00:31:24;;;;;;;14.90;5.23;;;23.20;1.00;;;;;;4994236;28;20436;-73
2023/07/10 00:33:51;;;;;;;16.13;6.03;;;23.20;1.00;;;;;;4995383;28;20430;-73
2023/07/10 00:39:38;;;;;;;15.13;5.30;;;23.10;1.00;;;;;;4975569;28;20503;-81
2023/07/10 00:42:20;;;;;;;7.70;4.90;;;23.00;1.00;;;;;;4999172;28;20482;-81
2023/07/10 00:44:55;;;;;;;10.60;5.30;;;22.90;1.00;;;;;;4979842;28;20188;-81
2023/07/10 00:47:26;;;;;;;12.47;5.50;;;22.80;1.00;;;;;;4992067;28;20423;-81
2023/07/10 00:50:20;;;;;;;9.30;5.60;;;22.70;1.00;;;;;;5004191;28;20450;-81
2023/07/10 00:52:48;;;;;;;12.23;5.00;;;22.70;1.00;;;;;;4985440;28;20909;-73
2023/07/10 00:55:20;;;;;;;8.70;4.70;;;22.60;1.00;;;;;;4994985;28;20443;-73
2023/07/10 00:57:50;;;;;;;9.03;6.00;;;22.60;1.00;;;;;;4986389;28;20418;-73
2023/07/10 01:00:19;;;;;;;8.50;5.37;;;22.50;1.00;;;;;;4996646;28;20548;-73
2023/07/10 01:02:46;;;;;;;12.20;5.60;;;22.40;1.00;;;;;;4989191;28;20760;-73
2023/07/10 01:05:12;;;;;;;9.53;4.50;;;22.20;1.00;;;;;;4998512;28;20492;-73
2023/07/10 01:07:46;;;;;;;8.80;5.47;;;22.20;1.00;;;;;;4997568;28;20441;-73
2023/07/10 01:10:12;;;;;;;7.83;5.70;;;22.10;1.00;;;;;;4998968;28;20975;-73
2023/07/10 01:12:41;;;;;;;11.90;5.07;;;22.10;1.00;;;;;;4998595;28;20440;-73
2023/07/10 01:15:08;;;;;;;8.80;5.37;;;22.10;1.00;;;;;;4995651;28;20440;-73
2023/07/10 01:17:34;;;;;;;13.03;5.23;;;22.00;1.00;;;;;;4994766;28;20436;-73
2023/07/10 01:20:25;;;;;;;7.57;5.00;;;22.00;1.00;;;;;;5001423;28;20503;-73
2023/07/10 01:22:51;;;;;;;11.50;4.87;;;22.00;1.00;;;;;;4997838;28;20440;-73
2023/07/10 01:25:17;;;;;;;10.33;5.90;;;22.00;1.00;;;;;;4993395;28;20899;-73
2023/07/10 01:27:45;;;;;;;7.00;5.17;;;21.90;1.00;;;;;;4996254;28;20653;-73
2023/07/10 01:30:33;;;;;;;7.53;5.40;;;21.80;1.00;;;;;;5001064;28;20961;-73
2023/07/10 01:32:59;;;;;;;8.63;5.33;;;21.80;1.00;;;;;;4994265;28;20488;-73
2023/07/10 01:35:29;;;;;;;9.77;5.17;;;21.80;1.00;;;;;;5000539;28;20424;-72
2023/07/10 01:41:50;;;;;;;11.23;5.23;;;21.70;1.00;;;;;;4974339;28;20484;-82
2023/07/10 01:44:51;;;;;;;9.50;5.90;;;21.70;1.00;;;;;;4989115;28;20437;-81
2023/07/10 01:47:27;;;;;;;13.60;5.93;;;21.70;1.00;;;;;;5003695;28;20537;-81
2023/07/10 01:53:14;;;;;;;7.40;5.40;;;21.70;1.00;;;;;;4993097;28;20447;-73
2023/07/10 01:55:45;;;;;;;13.13;6.23;;;21.80;1.00;;;;;;4999804;28;20419;-73
2023/07/10 01:58:12;;;;;;;11.47;5.90;;;21.80;1.00;;;;;;4998137;28;20183;-73
2023/07/10 02:00:40;;;;;;;10.20;6.20;;;21.80;1.00;;;;;;4995252;28;20442;-73
2023/07/10 02:03:06;;;;;;;14.13;5.80;;;21.80;1.00;;;;;;4995930;28;20441;-73
2023/07/10 02:05:32;;;;;;;10.70;5.53;;;21.90;1.00;;;;;;5001134;28;20417;-73
2023/07/10 02:07:58;;;;;;;11.30;5.10;;;21.90;1.00;;;;;;4994685;28;20445;-73
2023/07/10 02:10:24;;;;;;;8.40;5.20;;;22.00;1.00;;;;;;5000995;28;20205;-73
2023/07/10 02:12:49;;;;;;;16.30;6.00;;;22.00;1.00;;;;;;4991425;28;20576;-73
2023/07/10 02:15:15;;;;;;;12.33;5.20;;;21.90;1.00;;;;;;4995980;28;20190;-73
2023/07/10 02:17:41;;;;;;;9.20;5.43;;;21.90;1.00;;;;;;4999425;28;20237;-73
2023/07/10 02:20:07;;;;;;;9.60;5.47;;;22.00;1.00;;;;;;4993224;28;20198;-73
2023/07/10 02:23:02;;;;;;;23.00;6.37;;;21.90;1.00;;;;;;4992918;28;20249;-81
2023/07/10 02:28:50;;;;;;;8.37;6.50;;;21.90;1.00;;;;;;4984728;28;20923;-81
2023/07/10 02:34:37;;;;;;;9.83;6.00;;;21.70;1.00;;;;;;4999165;28;20234;-81
2023/07/10 02:37:38;;;;;;;9.83;6.40;;;21.70;1.00;;;;;;5006005;28;20943;-81
2023/07/10 02:40:05;;;;;;;14.70;6.40;;;21.60;1.00;;;;;;4992305;28;20194;-81
2023/07/10 02:49:14;;;;;;;9.53;6.80;;;21.40;1.00;;;;;;5001819;28;20483;-81
2023/07/10 02:55:01;;;;;;;18.30;6.67;;;21.40;1.00;;;;;;4998318;28;20679;-73
2023/07/10 02:57:33;;;;;;;10.60;7.03;;;21.30;1.00;;;;;;4997040;28;20460;-73
2023/07/10 03:00:04;;;;;;;10.90;5.97;;;21.20;1.00;;;;;;4996299;28;20204;-73
2023/07/10 03:02:30;;;;;;;12.67;7.10;;;21.20;1.00;;;;;;4997047;28;20436;-75
2023/07/10 03:04:56;;;;;;;15.43;7.60;;;21.10;1.00;;;;;;5002674;28;20779;-74
2023/07/10 03:07:22;;;;;;;15.60;7.80;;;21.20;1.00;;;;;;4997682;28;20429;-73
2023/07/10 03:16:31;;;;;;;8.20;6.87;;;21.00;1.00;;;;;;5006139;28;20514;-81
2023/07/10 03:22:38;;;;;;;12.30;6.10;;;21.10;1.00;;;;;;4996800;28;20279;-81
2023/07/10 03:25:04;;;;;;;10.60;6.67;;;21.10;1.00;;;;;;4986003;28;20463;-73
2023/07/10 03:27:30;;;;;;;12.03;7.10;;;21.10;1.00;;;;;;4996893;28;20456;-74
2023/07/10 03:36:40;;;;;;;15.93;6.80;;;21.00;1.00;;;;;;5001025;28;20410;-83
2023/07/10 03:42:28;;;;;;;9.90;6.70;;;20.90;1.00;;;;;;4996649;28;20396;-87
2023/07/10 03:51:38;;;;;;;16.77;7.77;;;21.00;1.00;;;;;;4976863;28;20420;-87
2023/07/10 03:57:26;;;;;;;13.60;7.73;;;20.90;1.00;;;;;;4996363;28;20915;-88
2023/07/10 04:03:15;;;;;;;15.67;7.60;;;21.00;1.00;;;;;;5003333;28;20400;-87
2023/07/10 04:06:11;;;;;;;11.10;7.60;;;21.00;1.00;;;;;;5025095;28;20421;-87
2023/07/10 04:15:20;;;;;;;15.13;7.53;;;21.10;1.00;;;;;;4996232;28;20898;-87
2023/07/10 04:24:30;;;;;;;15.33;8.30;;;21.20;1.00;;;;;;5007372;28;20445;-87
2023/07/10 04:33:40;;;;;;;13.20;8.40;;;21.10;1.00;;;;;;4988110;28;20435;-87
2023/07/10 04:39:27;;;;;;;11.90;8.17;;;21.20;1.00;;;;;;5001752;28;20235;-83
2023/07/10 04:51:59;;;;;;;13.00;8.90;;;21.40;1.00;;;;;;5001310;28;20458;-84
2023/07/10 04:54:27;;;;;;;17.80;9.53;;;21.50;1.00;;;;;;4999933;28;20826;-88
2023/07/10 05:01:03;;;;;;;12.77;9.03;;;21.60;1.00;;;;;;4995367;28;20450;-86
2023/07/10 05:07:20;;;;;;;15.53;9.40;;;21.90;1.00;;;;;;4980347;28;20880;-87
2023/07/10 05:09:46;;;;;;;14.73;9.67;;;22.10;1.00;;;;;;5010839;28;20435;-84
2023/07/10 05:15:34;;;;;;;12.73;8.20;;;22.30;1.00;;;;;;4992450;28;20470;-84
2023/07/10 05:21:21;;;;;;;20.47;9.13;;;22.60;1.00;;;;;;5012226;28;20346;-86
2023/07/10 05:27:27;;;;;;;15.50;9.30;;;22.90;1.00;;;;;;5006299;28;20240;-86
2023/07/10 05:39:58;;;;;;;14.90;9.97;;;;;;;;;;4993777;28;20533;-86
2023/07/10 05:42:56;;;;;;;13.80;9.40;;;23.60;1.00;;;;;;5002527;28;20452;-86
2023/07/10 05:52:06;;;;;;;24.80;12.50;;;24.00;1.00;;;;;;5002632;28;20498;-86
2023/07/10 05:57:54;;;;;;;21.80;13.10;;;24.20;1.00;;;;;;4991714;28;20408;-88
2023/07/10 06:00:27;;;;;;;28.50;15.57;;;24.40;1.00;;;;;;5009609;28;20437;-88
2023/07/10 06:03:20;;;;;;;29.27;17.50;;;24.40;1.00;;;;;;5011931;28;20188;-86
2023/07/10 06:06:32;;;;;;;30.53;17.40;;;24.50;1.00;;;;;;5007795;28;20453;-88
2023/07/10 06:13:14;;;;;;;28.63;17.90;;;24.70;1.00;;;;;;4975060;28;20781;-88
2023/07/10 06:15:47;;;;;;;22.00;15.57;;;24.80;1.00;;;;;;4990436;28;20469;-88
2023/07/10 06:24:56;;;;;;;19.33;10.13;;;25.10;1.00;;;;;;4977869;28;20364;-87
2023/07/10 06:34:06;;;;;;;17.90;9.00;;;25.40;1.00;;;;;;5000471;28;20465;-87
2023/07/10 06:37:03;;;;;;;22.77;9.27;;;25.70;1.00;;;;;;5007854;28;20430;-87
2023/07/10 06:42:51;;;;;;;24.33;8.87;;;25.90;1.00;;;;;;5003845;28;20421;-87
2023/07/10 06:45:38;;;;;;;14.20;8.87;;;26.00;1.00;;;;;;4997830;28;20431;-87
2023/07/10 06:51:26;;;;;;;15.83;8.00;;;26.30;1.00;;;;;;5001780;28;20435;-87
2023/07/10 06:53:52;;;;;;;16.87;8.43;;;26.40;1.00;;;;;;4984128;28;20441;-86
2023/07/10 07:03:57;;;;;;;17.87;8.00;;;26.70;1.00;;;;;;5010603;28;20486;-87
2023/07/10 07:09:45;;;;;;;23.10;8.83;;;26.80;1.00;;;;;;4993362;28;20425;-87
2023/07/10 07:12:50;;;;;;;14.67;8.67;;;27.00;1.00;;;;;;5002478;28;20421;-87
2023/07/10 07:22:20;;;;;;;14.40;7.23;;;27.20;1.00;;;;;;5008205;28;20455;-86
2023/07/10 07:24:46;;;;;;;17.77;8.20;;;27.40;1.00;;;;;;4976496;28;20416;-87
2023/07/10 07:31:20;;;;;;;13.00;8.53;;;27.60;1.00;;;;;;5002287;28;20205;-86
2023/07/10 07:37:08;;;;;;;25.97;8.17;;;27.50;1.00;;;;;;4997272;28;20953;-87
2023/07/10 07:40:09;;;;;;;15.83;9.30;;;27.60;1.00;;;;;;5013621;28;20430;-87
2023/07/10 07:43:20;;;;;;;17.43;9.90;;;27.70;1.00;;;;;;5002869;28;20192;-87
2023/07/10 07:49:15;;;;;;;20.13;11.43;;;27.50;1.00;;;;;;5001291;28;20449;-87
2023/07/10 07:52:26;;;;;;;18.93;10.93;;;27.40;1.00;;;;;;5013147;28;20517;-87
2023/07/10 08:02:20;;;;;;;19.83;11.93;;;27.80;1.00;;;;;;5002369;28;20476;-87
2023/07/10 08:08:27;;;;;;;20.03;13.37;;;28.30;1.00;;;;;;4999617;28;20520;-87
2023/07/10 08:17:37;;;;;;;22.00;14.07;;;;;;;;;;4995010;28;20446;-86
2023/07/10 08:23:24;;;;;;;19.20;12.40;;;28.60;1.00;;;;;;4993784;28;20466;-86
2023/07/10 08:26:03;;;;;;;19.67;12.43;;;28.90;1.00;;;;;;4993096;28;20436;-89
2023/07/10 08:29:08;;;;;;;17.50;12.80;;;29.20;1.00;;;;;;4994758;28;20234;-84
2023/07/10 08:34:56;;;;;;;15.70;11.27;;;28.90;1.00;;;;;;5000542;28;20942;-86
2023/07/10 08:37:22;;;;;;;17.90;12.20;;;28.80;1.00;;;;;;5013479;28;20520;-87
2023/07/10 08:53:23;;;;;;;19.37;12.73;;;29.70;1.00;;;;;;4984763;28;20807;-87
2023/07/10 08:56:04;;;;;;;16.10;12.80;;;29.80;1.00;;;;;;5002134;28;20464;-87
2023/07/10 09:01:52;;;;;;;17.90;12.80;;;29.30;1.00;;;;;;4993946;28;20462;-87
2023/07/10 09:08:05;;;;;;;15.77;11.80;;;29.50;1.00;;;;;;4996962;28;20412;-85
2023/07/10 09:10:59;;;;;;;25.50;11.50;;;29.90;1.00;;;;;;4992574;28;20437;-87
2023/07/10 09:16:50;;;;;;;17.30;11.10;;;30.60;1.00;;;;;;5008114;28;20491;-84
2023/07/10 09:19:39;;;;;;;15.67;10.10;;;30.90;1.00;;;;;;5000666;28;20506;-87
2023/07/10 09:22:26;;;;;;;14.30;10.67;;;30.60;1.00;;;;;;5007178;28;20954;-87
2023/07/10 09:25:26;;;;;;;14.37;11.37;;;30.50;1.00;;;;;;5014342;28;20396;-85
2023/07/10 09:27:58;;;;;;;17.97;10.47;;;30.40;1.00;;;;;;4985579;28;20539;-89
2023/07/10 09:30:56;;;;;;;14.23;9.80;;;30.20;1.00;;;;;;4989759;28;20425;-88
2023/07/10 09:33:56;;;;;;;20.20;11.57;;;30.10;1.00;;;;;;5006030;28;20488;-88
2023/07/10 09:43:27;;;;;;;13.93;9.07;;;29.10;1.00;;;;;;4975579;28;20962;-88
2023/07/10 09:52:41;;;;;;;11.73;7.63;;;28.90;1.00;;;;;;4986688;28;20432;-89
2023/07/10 09:55:59;;;;;;;13.90;7.47;;;28.90;1.00;;;;;;4991926;28;20471;-89
2023/07/10 09:58:56;;;;;;;12.43;8.07;;;29.20;1.00;;;;;;4975198;28;20972;-87
2023/07/10 10:05:26;;;;;;;11.23;7.30;;;29.30;1.00;;;;;;4977485;28;20915;-89
2023/07/10 10:08:25;;;;;;;9.00;7.63;;;29.60;1.00;;;;;;4980977;28;20471;-94
2023/07/10 10:14:22;;;;;;;9.00;7.30;;;29.80;1.00;;;;;;4997139;28;20446;-88
2023/07/10 10:17:05;;;;;;;11.20;7.07;;;30.30;1.00;;;;;;4980335;28;20432;-87
2023/07/10 10:22:52;;;;;;;9.40;7.23;;;30.20;1.00;;;;;;4995031;28;20435;-83
2023/07/10 10:25:49;;;;;;;11.70;8.17;;;30.40;1.00;;;;;;5001742;28;20431;-85
2023/07/10 10:28:44;;;;;;;8.93;6.83;;;30.80;1.00;;;;;;4937453;29;20203;-83
2023/07/10 10:31:56;;;;;;;11.80;7.77;;;31.00;1.00;;;;;;4920022;29;20446;-89
2023/07/10 10:34:38;;;;;;;9.93;6.97;;;31.00;1.00;;;;;;4895327;29;20440;-88
2023/07/10 10:37:49;;;;;;;15.00;8.03;;;31.00;1.00;;;;;;4919485;29;20928;-88
2023/07/10 10:40:48;;;;;;;14.27;7.43;;;31.10;1.00;;;;;;4914038;29;20909;-88
2023/07/10 10:46:52;;;;;;;13.47;7.17;;;31.40;1.00;;;;;;4931164;29;20435;-86
2023/07/10 10:53:05;;;;;;;15.87;7.90;;;31.20;1.00;;;;;;4915654;29;20597;-87
2023/07/10 11:02:39;;;;;;;11.67;7.20;;;31.00;1.00;;;;;;4931339;29;20407;-87
2023/07/10 11:08:33;;;;;;;14.27;8.43;;;31.20;1.00;;;;;;4985651;28;21000;-85
2023/07/10 11:11:30;;;;;;;15.10;8.30;;;31.30;1.00;;;;;;4974673;28;20438;-86
2023/07/10 11:13:56;;;;;;;9.57;7.23;;;31.30;1.00;;;;;;4956777;29;20446;-85
2023/07/10 11:16:30;;;;;;;15.00;7.83;;;31.20;1.00;;;;;;4955986;29;20474;-87
2023/07/10 11:18:57;;;;;;;10.70;8.10;;;31.00;1.00;;;;;;4961247;28;20425;-88
2023/07/10 11:28:28;;;;;;;14.17;8.50;;;31.00;1.00;;;;;;4995381;28;20773;-87
2023/07/10 11:31:15;;;;;;;14.77;7.90;;;31.40;1.00;;;;;;4981594;28;20494;-87
2023/07/10 11:33:42;;;;;;;15.80;7.27;;;31.50;1.00;;;;;;4994825;28;20447;-88
2023/07/10 11:36:33;;;;;;;10.70;6.80;;;31.40;1.00;;;;;;4998259;28;20421;-90
2023/07/10 11:42:33;;;;;;;11.90;7.97;;;31.10;1.00;;;;;;4996472;28;20436;-89
2023/07/10 11:45:47;;;;;;;18.83;7.43;;;31.40;1.00;;;;;;4995697;28;20549;-86
2023/07/10 11:58:50;;;;;;;12.20;7.30;;;31.40;1.00;;;;;;4975101;28;20401;-87
2023/07/10 12:01:27;;;;;;;10.33;8.00;;;31.60;1.00;;;;;;4959179;28;20465;-90
2023/07/10 12:07:14;;;;;;;17.07;7.70;;;31.90;1.00;;;;;;4975246;28;20453;-88
2023/07/10 12:09:59;;;;;;;10.87;7.30;;;32.00;1.00;;;;;;4958627;28;20848;-88
2023/07/10 12:15:47;;;;;;;8.40;7.30;;;32.30;1.00;;;;;;4970409;28;20811;-86
2023/07/10 12:18:45;;;;;;;12.80;7.57;;;32.40;1.00;;;;;;4958102;28;20520;-86
2023/07/10 12:21:56;;;;;;;11.57;8.00;;;32.30;1.00;;;;;;4957469;28;20462;-90
2023/07/10 12:24:59;;;;;;;18.20;8.43;;;32.00;1.00;;;;;;4982181;28;20499;-86
2023/07/10 12:27:36;;;;;;;11.47;6.97;;;32.10;1.00;;;;;;4994158;28;20432;-85
2023/07/10 12:33:42;;;;;;;11.00;7.23;;;32.30;1.00;;;;;;4990184;28;20451;-87
2023/07/10 12:36:58;;;;;;;9.43;7.70;;;32.30;1.00;;;;;;4994384;28;20450;-89
2023/07/10 12:40:14;;;;;;;10.20;7.93;;;32.00;1.00;;;;;;4991511;28;20426;-91
2023/07/10 12:43:17;;;;;;;13.80;7.53;;;31.90;1.00;;;;;;5012994;28;20455;-93
2023/07/10 12:46:27;;;;;;;10.63;7.43;;;32.00;1.00;;;;;;4991593;28;20955;-93
2023/07/10 12:49:00;;;;;;;10.10;6.37;;;32.20;1.00;;;;;;4994857;28;20455;-89
2023/07/10 12:51:30;;;;;;;7.00;6.30;;;32.60;1.00;;;;;;5013994;28;20448;-91
2023/07/10 12:53:59;;;;;;;8.50;6.53;;;32.70;1.00;;;;;;5013762;28;20432;-85
2023/07/10 12:56:38;;;;;;;12.00;7.40;;;32.70;1.00;;;;;;5007782;28;20446;-84
2023/07/10 12:59:31;;;;;;;7.43;6.30;;;32.60;1.00;;;;;;4990201;28;20440;-86
2023/07/10 13:02:25;;;;;;;7.13;6.43;;;32.70;1.00;;;;;;4997527;28;20420;-85
2023/07/10 13:05:31;;;;;;;9.90;6.53;;;32.80;1.00;;;;;;4983357;28;20892;-85
2023/07/10 13:08:47;;;;;;;7.17;6.00;;;32.90;1.00;;;;;;5000783;28;20424;-87
2023/07/10 13:11:27;;;;;;;10.10;6.60;;;32.90;1.00;;;;;;4960629;28;20433;-88
2023/07/10 13:14:30;;;;;;;11.40;6.50;;;33.00;1.00;;;;;;4975871;28;20437;-86
2023/07/10 13:16:58;;;;;;;9.83;6.20;;;33.10;1.00;;;;;;4968369;28;20525;-86
2023/07/10 13:19:56;;;;;;;7.77;5.70;;;33.10;1.00;;;;;;4979100;28;20931;-83
2023/07/10 13:22:57;;;;;;;10.10;6.03;;;33.40;1.00;;;;;;4990782;28;20437;-83
2023/07/10 13:25:31;;;;;;;8.03;6.07;;;33.40;1.00;;;;;;4959477;28;20426;-84
2023/07/10 13:27:57;;;;;;;6.60;5.73;;;33.10;1.00;;;;;;4955373;28;20460;-83
2023/07/10 13:30:27;;;;;;;6.03;5.40;;;33.20;1.00;;;;;;4965818;28;20442;-90
2023/07/10 13:32:57;;;;;;;11.73;5.40;;;33.30;1.00;;;;;;4956472;28;20470;-89
2023/07/10 13:35:33;;;;;;;7.37;5.40;;;33.40;1.00;;;;;;4957905;28;20441;-89
2023/07/10 13:38:27;;;;;;;8.43;6.37;;;33.50;1.00;;;;;;4973305;28;20516;-86
2023/07/10 13:40:57;;;;;;;10.60;5.90;;;33.70;1.00;;;;;;4955970;28;20477;-85
2023/07/10 13:43:27;;;;;;;9.60;5.23;;;33.70;1.00;;;;;;4956791;28;20449;-86
2023/07/10 13:45:59;;;;;;;6.47;5.20;;;33.90;1.00;;;;;;4968264;28;20507;-85
2023/07/10 13:48:51;;;;;;;6.37;5.43;;;34.10;1.00;;;;;;4981308;28;20955;-87
2023/07/10 13:51:28;;;;;;;6.63;5.30;;;34.30;1.00;;;;;;4974368;28;20414;-87
2023/07/10 13:54:26;;;;;;;9.57;5.00;;;34.30;1.00;;;;;;4981241;28;20445;-87
2023/07/10 13:56:58;;;;;;;5.50;5.00;;;33.90;1.00;;;;;;5001804;28;20459;-86
2023/07/10 13:59:27;;;;;;;9.70;5.20;;;33.60;1.00;;;;;;5000077;28;20425;-85
2023/07/10 14:01:57;;;;;;;8.00;5.23;;;33.90;1.00;;;;;;5014137;28;20459;-86
2023/07/10 14:04:47;;;;;;;8.50;4.90;;;34.10;1.00;;;;;;4996607;28;20940;-85
2023/07/10 14:07:29;;;;;;;10.43;5.10;;;33.90;1.00;;;;;;4991593;28;20417;-83
2023/07/10 14:10:00;;;;;;;8.70;4.50;;;33.80;1.00;;;;;;5012439;28;20435;-85
2023/07/10 14:12:29;;;;;;;5.87;4.93;;;34.10;1.00;;;;;;5010391;28;20978;-84
2023/07/10 14:14:58;;;;;;;5.70;5.00;;;34.10;1.00;;;;;;4973810;28;20444;-81
2023/07/10 14:17:28;;;;;;;6.60;5.50;;;34.10;1.00;;;;;;4991982;28;20979;-85
2023/07/10 14:20:26;;;;;;;9.33;4.80;;;34.20;1.00;;;;;;4993785;28;20471;-84
2023/07/10 14:23:27;;;;;;;6.07;5.23;;;34.20;1.00;;;;;;4990525;28;20467;-83
2023/07/10 14:25:57;;;;;;;7.50;4.67;;;33.90;1.00;;;;;;4973086;28;20533;-81
2023/07/10 14:28:27;;;;;;;5.67;4.97;;;33.90;1.00;;;;;;5005727;28;21093;-82
2023/07/10 14:30:57;;;;;;;6.80;4.70;;;34.00;1.00;;;;;;4981998;28;20486;-84
2023/07/10 14:33:27;;;;;;;10.00;4.50;;;34.30;1.00;;;;;;4986434;28;20520;-84
2023/07/10 14:36:26;;;;;;;11.73;5.20;;;34.30;1.00;;;;;;4994047;28;20457;-83
2023/07/10 14:42:16;;;;;;;5.70;4.10;;;34.90;1.00;;;;;;4992180;28;20458;-85
2023/07/10 14:44:57;;;;;;;5.10;4.30;;;35.10;1.00;;;;;;4997609;28;20791;-86
2023/07/10 14:47:32;;;;;;;6.53;4.23;;;35.30;1.00;;;;;;5001392;28;20938;-88
2023/07/10 14:53:39;;;;;;;6.87;4.40;;;35.60;1.00;;;;;;5004880;28;20467;-89
2023/07/10 14:56:27;;;;;;;8.17;4.97;;;35.60;1.00;;;;;;5029793;28;20542;-89
2023/07/10 14:58:57;;;;;;;5.27;4.50;;;35.50;1.00;;;;;;5000751;28;20448;-85
2023/07/10 15:01:27;;;;;;;4.67;4.17;;;34.90;1.00;;;;;;5010686;28;20575;-86
2023/07/10 15:04:27;;;;;;;7.10;4.00;;;34.60;1.00;;;;;;4997943;28;20409;-85
2023/07/10 15:06:57;;;;;;;4.23;3.83;;;34.40;1.00;;;;;;5020327;28;20457;-84
2023/07/10 15:09:27;;;;;;;6.70;4.10;;;34.50;1.00;;;;;;5001186;28;20534;-84
2023/07/10 15:11:57;;;;;;;5.23;4.73;;;34.50;1.00;;;;;;5003777;28;20413;-85
2023/07/10 15:14:27;;;;;;;4.50;4.10;;;34.40;1.00;;;;;;5005655;28;20439;-83
2023/07/10 15:16:57;;;;;;;5.10;4.40;;;34.50;1.00;;;;;;5003908;28;20974;-88
2023/07/10 15:19:27;;;;;;;5.10;3.60;;;34.30;1.00;;;;;;5018743;28;20436;-88
2023/07/10 15:21:57;;;;;;;5.47;3.80;;;34.40;1.00;;;;;;4990589;28;20493;-87
2023/07/10 15:24:56;;;;;;;4.37;3.97;;;34.40;1.00;;;;;;4995833;28;20927;-88
2023/07/10 15:27:57;;;;;;;5.00;4.17;;;34.40;1.00;;;;;;5012480;28;20445;-90
2023/07/10 15:34:26;;;;;;;5.67;4.07;;;34.50;1.00;;;;;;4986309;28;20412;-87
2023/07/10 15:37:31;;;;;;;19.13;4.57;;;34.40;1.00;;;;;;4997080;28;20444;-85
2023/07/10 15:39:57;;;;;;;5.50;4.07;;;33.90;1.00;;;;;;4994523;28;20485;-84
2023/07/10 15:42:28;;;;;;;4.30;3.87;;;36.20;1.00;;;;;;4994809;28;20794;-83
2023/07/10 15:45:31;;;;;;;7.00;3.60;;;36.20;1.00;;;;;;5008939;28;20454;-84
2023/07/10 15:48:00;;;;;;;4.80;3.67;;;37.70;1.00;;;;;;4997929;28;20425;-90
2023/07/10 15:50:29;;;;;;;5.77;3.47;;;39.40;1.00;;;;;;5011922;28;20444;-90
2023/07/10 15:52:57;;;;;;;3.43;3.00;;;40.00;1.00;;;;;;4985771;28;20439;-91
2023/07/10 15:55:29;;;;;;;3.30;3.00;;;41.20;1.00;;;;;;4997287;28;20444;-89
2023/07/10 15:58:27;;;;;;;7.00;3.10;;;41.80;1.00;;;;;;4991939;28;20453;-90
2023/07/10 16:00:57;;;;;;;3.17;2.80;;;42.50;1.00;;;;;;5012961;28;20546;-86
2023/07/10 16:03:30;;;;;;;3.43;3.13;;;42.70;1.00;;;;;;5017552;28;20428;-85
2023/07/10 16:06:21;;;;;;;3.67;2.60;;;43.10;1.00;;;;;;5004458;28;20432;-88
2023/07/10 16:08:51;;;;;;;8.07;2.50;;;43.10;1.00;;;;;;5012612;28;20436;-89
2023/07/10 16:14:38;;;;;;;3.43;2.80;;;43.10;1.00;;;;;;4990485;28;20419;-89
2023/07/10 16:21:08;;;;;;;3.33;2.30;;;42.20;1.00;;;;;;4999046;28;20244;-86
2023/07/10 16:37:15;;;;;;;3.80;2.20;;;40.80;1.00;;;;;;5002813;28;20423;-84
2023/07/10 16:39:45;;;;;;;3.97;2.80;;;41.10;1.00;;;;;;4992747;28;20444;-84
2023/07/10 16:45:32;;;;;;;5.03;3.00;;;41.80;1.00;;;;;;4995734;28;20394;-84
2023/07/10 16:51:30;;;;;;;2.60;2.40;;;42.50;1.00;;;;;;5007672;28;20216;-85
2023/07/10 16:54:20;;;;;;;2.50;2.30;;;42.50;1.00;;;;;;5007814;28;20407;-85
2023/07/10 17:03:32;;;;;;;4.17;2.47;;;42.50;1.00;;;;;;5000272;28;20455;-86
2023/07/10 17:06:29;;;;;;;2.63;2.40;;;42.50;1.00;;;;;;5004928;28;20427;-86
2023/07/10 17:09:39;;;;;;;9.03;2.77;;;42.40;1.00;;;;;;4997377;28;20472;-88
2023/07/10 17:15:33;;;;;;;7.27;2.70;;;42.00;1.00;;;;;;4996150;28;20471;-86
2023/07/10 17:18:45;;;;;;;2.80;2.60;;;42.20;1.00;;;;;;5004860;28;20803;-84
2023/07/10 17:21:50;;;;;;;3.47;2.17;;;41.70;1.00;;;;;;5002445;28;20468;-84
2023/07/10 17:24:56;;;;;;;2.30;2.20;;;41.70;1.00;;;;;;4994347;28;20421;-84
2023/07/10 17:34:19;;;;;;;5.10;2.37;;;40.90;1.00;;;;;;4994439;28;20395;-86
2023/07/10 17:36:51;;;;;;;10.73;2.40;;;41.00;1.00;;;;;;4999150;28;20428;-88
2023/07/10 17:42:39;;;;;;;10.30;3.27;;;40.50;1.00;;;;;;4988959;28;20429;-86
2023/07/10 17:45:17;;;;;;;2.70;2.50;;;40.20;1.00;;;;;;5022348;28;20421;-86
2023/07/10 17:48:38;;;;;;;2.93;2.77;;;39.10;1.00;;;;;;5005655;28;20182;-83
2023/07/10 17:54:27;;;;;;;2.90;2.70;;;37.20;1.00;;;;;;5014226;28;20368;-88
2023/07/10 18:00:16;;;;;;;4.43;3.20;;;35.00;1.00;;;;;;4998925;28;21005;-89
2023/07/10 18:02:45;;;;;;;6.80;2.90;;;34.90;1.00;;;;;;4994242;28;20628;-89
2023/07/10 18:08:39;;;;;;;3.97;3.40;;;33.70;1.00;;;;;;5007219;28;20399;-87
2023/07/10 18:14:57;;;;;;;6.50;3.23;;;32.80;1.00;;;;;;5006744;28;20475;-84
2023/07/10 18:20:44;;;;;;;5.57;3.20;;;32.00;1.00;;;;;;4992615;28;20822;-83
2023/07/10 18:26:32;;;;;;;6.70;3.20;;;31.30;1.00;;;;;;4989637;28;20558;-86
2023/07/10 18:29:39;;;;;;;6.50;3.47;;;30.90;1.00;;;;;;5009786;28;20435;-86
2023/07/10 18:39:27;;;;;;;5.77;3.83;;;30.00;1.00;;;;;;4983070;28;20475;-88
2023/07/10 18:42:33;;;;;;;8.43;3.60;;;29.70;1.00;;;;;;4995735;28;20513;-87
2023/07/10 18:45:26;;;;;;;7.43;3.30;;;29.50;1.00;;;;;;4991825;28;20428;-90
2023/07/10 18:48:09;;;;;;;45.93;5.00;;;29.40;1.00;;;;;;4993461;28;20444;-90
2023/07/10 18:54:05;;;;;;;4.37;3.07;;;29.10;1.00;;;;;;5015110;28;20956;-86
2023/07/10 19:03:16;;;;;;;5.83;3.30;;;28.30;1.00;;;;;;4999528;28;20449;-86
2023/07/10 19:06:32;;;;;;;5.33;3.40;;;28.00;1.00;;;;;;5002650;28;20443;-89
2023/07/10 19:12:27;;;;;;;5.67;3.50;;;27.50;1.00;;;;;;4997504;28;20402;-88
2023/07/10 19:18:21;;;;;;;8.00;3.90;;;27.00;1.00;;;;;;5017369;28;20374;-91
2023/07/10 19:24:16;;;;;;;10.43;4.00;;;26.60;1.00;;;;;;4998492;28;20432;-85
2023/07/10 19:30:04;;;;;;;7.07;3.50;;;26.20;1.00;;;;;;4990924;28;20937;-85
2023/07/10 19:32:45;;;;;;;4.93;3.73;;;26.00;1.00;;;;;;4999761;28;20423;-85
2023/07/10 19:38:33;;;;;;;4.50;3.43;;;25.70;1.00;;;;;;4992213;28;20532;-82
2023/07/10 19:47:43;;;;;;;4.80;3.67;;;25.00;1.00;;;;;;4996418;28;20393;-85
2023/07/10 19:50:27;;;;;;;4.00;3.50;;;25.00;1.00;;;;;;5015137;28;20425;-89
2023/07/10 19:59:32;;;;;;;6.57;4.00;;;24.50;1.00;;;;;;4981877;28;20410;-84
2023/07/10 20:01:57;;;;;;;5.07;3.50;;;24.50;1.00;;;;;;5001330;28;20973;-73
2023/07/10 20:12:03;;;;;;;10.53;5.20;;;24.10;1.00;;;;;;4991558;28;20421;-82
2023/07/10 20:17:51;;;;;;;9.33;5.33;;;;;;;;;;4981585;28;20551;-84
2023/07/10 20:20:20;;;;;;;16.27;5.93;;;23.70;1.00;;;;;;4998333;28;21214;-80
2023/07/10 20:23:09;;;;;;;16.80;6.50;;;23.70;1.00;;;;;;5000452;28;20418;-80
2023/07/10 20:26:11;;;;;;;18.47;4.67;;;23.60;1.00;;;;;;4995549;28;20423;-80
2023/07/10 20:29:21;;;;;;;8.47;5.87;;;23.50;1.00;;;;;;4995308;28;20435;-80
2023/07/10 20:35:13;;;;;;;6.20;4.60;;;23.40;1.00;;;;;;4994556;28;20419;-80
2023/07/10 20:38:32;;;;;;;17.03;4.80;;;23.30;1.00;;;;;;4992571;28;20429;-80
2023/07/10 20:44:20;;;;;;;7.03;3.87;;;23.10;1.00;;;;;;4989109;28;20392;-80
2023/07/10 20:50:13;;;;;;;6.70;3.87;;;22.90;1.00;;;;;;5006315;28;20185;-73
2023/07/10 20:52:41;;;;;;;6.27;4.00;;;22.90;1.00;;;;;;5002619;28;20415;-73
2023/07/10 20:55:12;;;;;;;13.67;4.23;;;22.80;1.00;;;;;;4993633;28;20401;-73
2023/07/10 20:57:41;;;;;;;13.57;3.83;;;22.70;1.00;;;;;;4994068;28;20483;-73
2023/07/10 21:00:15;;;;;;;6.20;3.83;;;22.60;1.00;;;;;;4995252;28;20426;-73
2023/07/10 21:02:40;;;;;;;9.90;4.37;;;22.60;1.00;;;;;;4994362;28;20471;-73
2023/07/10 21:05:08;;;;;;;7.03;4.00;;;22.60;1.00;;;;;;4993765;28;20448;-73
2023/07/10 21:07:34;;;;;;;20.03;3.83;;;22.50;1.00;;;;;;4991252;28;20179;-73
2023/07/10 21:09:59;;;;;;;10.00;4.10;;;22.50;1.00;;;;;;5006827;28;20428;-73
2023/07/10 21:12:25;;;;;;;5.90;4.30;;;22.30;1.00;;;;;;4993733;28;20201;-73
2023/07/10 21:14:51;;;;;;;12.20;4.30;;;22.30;1.00;;;;;;4993572;28;20186;-73
2023/07/10 21:17:27;;;;;;;6.83;4.00;;;22.30;1.00;;;;;;4996308;28;20642;-73
2023/07/10 21:19:53;;;;;;;5.90;4.00;;;22.20;1.00;;;;;;5002181;28;20176;-73